Terminal Aerodrome Forecast
Issued by NWS Grand Forks, ND

Home | Current Version | Previous Version | Graphics & Text | Print | Product List | Glossary On
Versions: 1 2 3 4 5 6 7 8 9 10 11 12 13 14 15 16 17 18 19 20 21 22 23
377
FTUS43 KFGF 232222 AAC
TAFGFK
TAF AMD
KGFK 232222Z 2322/2418 07015KT 4SM -SN BKN015 OVC025
      TEMPO 2322/2323 1SM -SN BKN010
     FM240000 08013KT 4SM BR BKN015
     FM240900 09014KT P6SM BKN010 OVC020=

USA.gov is the U.S. government's official web portal to all federal, state and local government web resources and services.